sensor_id;sensor_type;location;lat;lon;timestamp;temperature;humidity
21722;DHT22;11023;48.274;7.794;2023-02-28T00:00:29;0.70;99.90
21722;DHT22;11023;48.274;7.794;2023-02-28T00:02:55;0.80;99.90
21722;DHT22;11023;48.274;7.794;2023-02-28T00:05:23;0.80;99.90
21722;DHT22;11023;48.274;7.794;2023-02-28T00:07:50;0.80;99.90
21722;DHT22;11023;48.274;7.794;2023-02-28T00:10:21;0.70;99.90
21722;DHT22;11023;48.274;7.794;2023-02-28T00:12:51;0.70;99.90
21722;DHT22;11023;48.274;7.794;2023-02-28T00:15:18;0.70;99.90
21722;DHT22;11023;48.274;7.794;2023-02-28T00:17:43;0.60;99.90
21722;DHT22;11023;48.274;7.794;2023-02-28T00:25:16;0.60;99.90
21722;DHT22;11023;48.274;7.794;2023-02-28T00:28:15;0.50;99.90
21722;DHT22;11023;48.274;7.794;2023-02-28T00:30:55;0.50;99.90
21722;DHT22;11023;48.274;7.794;2023-02-28T00:36:24;0.40;99.90
21722;DHT22;11023;48.274;7.794;2023-02-28T00:39:09;0.40;99.90
21722;DHT22;11023;48.274;7.794;2023-02-28T00:41:40;0.30;99.90
21722;DHT22;11023;48.274;7.794;2023-02-28T00:44:12;0.30;99.90
21722;DHT22;11023;48.274;7.794;2023-02-28T00:46:48;0.20;99.90
21722;DHT22;11023;48.274;7.794;2023-02-28T00:52:02;0.20;99.90
21722;DHT22;11023;48.274;7.794;2023-02-28T00:54:34;0.20;99.90
21722;DHT22;11023;48.274;7.794;2023-02-28T00:57:14;0.10;99.90
21722;DHT22;11023;48.274;7.794;2023-02-28T00:59:58;0.10;99.90
21722;DHT22;11023;48.274;7.794;2023-02-28T01:02:24;0.10;99.90
21722;DHT22;11023;48.274;7.794;2023-02-28T01:05:00;0.10;99.90
21722;DHT22;11023;48.274;7.794;2023-02-28T01:07:28;0.10;99.90
21722;DHT22;11023;48.274;7.794;2023-02-28T01:09:57;0.10;99.90
21722;DHT22;11023;48.274;7.794;2023-02-28T01:15:31;0.00;99.90
21722;DHT22;11023;48.274;7.794;2023-02-28T01:18:08;0.00;99.90
21722;DHT22;11023;48.274;7.794;2023-02-28T01:20:39;-0.10;99.90
21722;DHT22;11023;48.274;7.794;2023-02-28T01:23:05;-0.10;99.90
21722;DHT22;11023;48.274;7.794;2023-02-28T01:25:51;-0.10;99.90
21722;DHT22;11023;48.274;7.794;2023-02-28T01:28:22;-0.10;99.90
21722;DHT22;11023;48.274;7.794;2023-02-28T01:30:49;-0.10;99.90
21722;DHT22;11023;48.274;7.794;2023-02-28T01:33:20;-0.10;99.90
21722;DHT22;11023;48.274;7.794;2023-02-28T01:36:16;-0.10;99.90
21722;DHT22;11023;48.274;7.794;2023-02-28T01:38:43;-0.10;99.90
21722;DHT22;11023;48.274;7.794;2023-02-28T01:41:38;-0.10;99.90
21722;DHT22;11023;48.274;7.794;2023-02-28T01:47:40;-0.10;99.90
21722;DHT22;11023;48.274;7.794;2023-02-28T01:50:17;-0.10;99.90
21722;DHT22;11023;48.274;7.794;2023-02-28T01:52:48;-0.10;99.90
21722;DHT22;11023;48.274;7.794;2023-02-28T01:55:17;-0.10;99.90
21722;DHT22;11023;48.274;7.794;2023-02-28T01:57:59;0.00;99.90
21722;DHT22;11023;48.274;7.794;2023-02-28T02:00:30;0.00;99.90
21722;DHT22;11023;48.274;7.794;2023-02-28T02:03:07;-0.10;99.90
21722;DHT22;11023;48.274;7.794;2023-02-28T02:05:40;-0.10;99.90
21722;DHT22;11023;48.274;7.794;2023-02-28T02:08:19;-0.10;99.90
21722;DHT22;11023;48.274;7.794;2023-02-28T02:11:07;-0.10;99.90
21722;DHT22;11023;48.274;7.794;2023-02-28T02:16:46;0.00;99.90
21722;DHT22;11023;48.274;7.794;2023-02-28T02:20:03;-0.10;99.90
21722;DHT22;11023;48.274;7.794;2023-02-28T02:22:55;-0.10;99.90
21722;DHT22;11023;48.274;7.794;2023-02-28T02:25:36;-0.10;99.90
21722;DHT22;11023;48.274;7.794;2023-02-28T02:28:35;-0.10;99.90
21722;DHT22;11023;48.274;7.794;2023-02-28T02:36:51;-0.10;99.90
21722;DHT22;11023;48.274;7.794;2023-02-28T02:39:38;-0.10;99.90
21722;DHT22;11023;48.274;7.794;2023-02-28T02:42:16;-0.10;99.90
21722;DHT22;11023;48.274;7.794;2023-02-28T02:44:49;-0.10;99.90
21722;DHT22;11023;48.274;7.794;2023-02-28T02:47:19;-0.10;99.90
21722;DHT22;11023;48.274;7.794;2023-02-28T02:49:52;-0.10;99.90
21722;DHT22;11023;48.274;7.794;2023-02-28T02:52:23;-0.10;99.90
21722;DHT22;11023;48.274;7.794;2023-02-28T02:54:52;0.00;99.90
21722;DHT22;11023;48.274;7.794;2023-02-28T02:57:27;-0.10;99.90
21722;DHT22;11023;48.274;7.794;2023-02-28T02:59:59;0.00;99.90
21722;DHT22;11023;48.274;7.794;2023-02-28T03:02:26;-0.10;99.90
21722;DHT22;11023;48.274;7.794;2023-02-28T03:05:02;-0.10;99.90
21722;DHT22;11023;48.274;7.794;2023-02-28T03:07:28;-0.10;99.90
21722;DHT22;11023;48.274;7.794;2023-02-28T03:09:56;-0.10;99.90
21722;DHT22;11023;48.274;7.794;2023-02-28T03:12:44;-0.10;99.90
21722;DHT22;11023;48.274;7.794;2023-02-28T03:15:27;-0.10;99.90
21722;DHT22;11023;48.274;7.794;2023-02-28T03:18:16;-0.10;99.90
21722;DHT22;11023;48.274;7.794;2023-02-28T03:23:42;-0.10;99.90
21722;DHT22;11023;48.274;7.794;2023-02-28T03:26:23;-0.10;99.90
21722;DHT22;11023;48.274;7.794;2023-02-28T03:29:07;-0.10;99.90
21722;DHT22;11023;48.274;7.794;2023-02-28T03:32:05;0.00;99.90
21722;DHT22;11023;48.274;7.794;2023-02-28T03:34:41;0.00;99.90
21722;DHT22;11023;48.274;7.794;2023-02-28T03:37:18;0.10;99.90
21722;DHT22;11023;48.274;7.794;2023-02-28T03:39:58;0.00;99.90
21722;DHT22;11023;48.274;7.794;2023-02-28T03:42:28;0.00;99.90
21722;DHT22;11023;48.274;7.794;2023-02-28T03:44:58;0.00;99.90
21722;DHT22;11023;48.274;7.794;2023-02-28T03:47:32;0.00;99.90
21722;DHT22;11023;48.274;7.794;2023-02-28T03:50:13;0.00;99.90
21722;DHT22;11023;48.274;7.794;2023-02-28T03:55:25;-0.10;99.90
21722;DHT22;11023;48.274;7.794;2023-02-28T03:58:21;-0.10;99.90
21722;DHT22;11023;48.274;7.794;2023-02-28T04:00:56;-0.10;99.90
21722;DHT22;11023;48.274;7.794;2023-02-28T04:03:34;0.00;99.90
21722;DHT22;11023;48.274;7.794;2023-02-28T04:06:02;0.00;99.90
21722;DHT22;11023;48.274;7.794;2023-02-28T04:08:30;0.00;99.90
21722;DHT22;11023;48.274;7.794;2023-02-28T04:11:24;0.00;99.90
21722;DHT22;11023;48.274;7.794;2023-02-28T04:14:00;-0.10;99.90
21722;DHT22;11023;48.274;7.794;2023-02-28T04:16:34;-0.10;99.90
21722;DHT22;11023;48.274;7.794;2023-02-28T04:19:07;-0.10;99.90
21722;DHT22;11023;48.274;7.794;2023-02-28T04:21:37;-0.20;99.90
21722;DHT22;11023;48.274;7.794;2023-02-28T04:24:16;-0.10;99.90
21722;DHT22;11023;48.274;7.794;2023-02-28T04:26:44;-0.20;99.90
21722;DHT22;11023;48.274;7.794;2023-02-28T04:29:13;-0.20;99.90
21722;DHT22;11023;48.274;7.794;2023-02-28T04:31:39;-0.20;99.90
21722;DHT22;11023;48.274;7.794;2023-02-28T04:34:05;-0.10;99.90
21722;DHT22;11023;48.274;7.794;2023-02-28T04:36:32;-0.20;99.90
21722;DHT22;11023;48.274;7.794;2023-02-28T04:39:00;-0.20;99.90
21722;DHT22;11023;48.274;7.794;2023-02-28T04:41:26;-0.20;99.90
21722;DHT22;11023;48.274;7.794;2023-02-28T04:43:52;-0.20;99.90
21722;DHT22;11023;48.274;7.794;2023-02-28T04:46:22;-0.30;99.90
21722;DHT22;11023;48.274;7.794;2023-02-28T04:48:53;-0.20;99.90
21722;DHT22;11023;48.274;7.794;2023-02-28T04:51:20;-0.20;99.90
21722;DHT22;11023;48.274;7.794;2023-02-28T04:53:46;-0.20;99.90
21722;DHT22;11023;48.274;7.794;2023-02-28T04:56:16;-0.20;99.90
21722;DHT22;11023;48.274;7.794;2023-02-28T04:58:42;-0.20;99.90
21722;DHT22;11023;48.274;7.794;2023-02-28T05:01:37;-0.20;99.90
21722;DHT22;11023;48.274;7.794;2023-02-28T05:04:06;-0.30;99.90
21722;DHT22;11023;48.274;7.794;2023-02-28T05:06:34;-0.20;99.90
21722;DHT22;11023;48.274;7.794;2023-02-28T05:09:00;-0.30;99.90
21722;DHT22;11023;48.274;7.794;2023-02-28T05:11:40;-0.20;99.90
21722;DHT22;11023;48.274;7.794;2023-02-28T05:14:12;-0.30;99.90
21722;DHT22;11023;48.274;7.794;2023-02-28T05:16:43;-0.30;99.90
21722;DHT22;11023;48.274;7.794;2023-02-28T05:19:11;-0.40;99.90
21722;DHT22;11023;48.274;7.794;2023-02-28T05:22:01;-0.40;99.90
21722;DHT22;11023;48.274;7.794;2023-02-28T05:24:27;-0.40;99.90
21722;DHT22;11023;48.274;7.794;2023-02-28T05:26:58;-0.40;99.90
21722;DHT22;11023;48.274;7.794;2023-02-28T05:29:24;-0.40;99.90
21722;DHT22;11023;48.274;7.794;2023-02-28T05:31:50;-0.40;99.90
21722;DHT22;11023;48.274;7.794;2023-02-28T05:34:16;-0.30;99.90
21722;DHT22;11023;48.274;7.794;2023-02-28T05:36:44;-0.40;99.90
21722;DHT22;11023;48.274;7.794;2023-02-28T05:39:21;-0.40;99.90
21722;DHT22;11023;48.274;7.794;2023-02-28T05:41:50;-0.40;99.90
21722;DHT22;11023;48.274;7.794;2023-02-28T05:44:33;-0.40;99.90
21722;DHT22;11023;48.274;7.794;2023-02-28T05:47:08;-0.40;99.90
21722;DHT22;11023;48.274;7.794;2023-02-28T05:49:34;-0.50;99.90
21722;DHT22;11023;48.274;7.794;2023-02-28T05:52:03;-0.40;99.90
21722;DHT22;11023;48.274;7.794;2023-02-28T05:54:39;-0.40;99.90
21722;DHT22;11023;48.274;7.794;2023-02-28T05:57:04;-0.40;99.90
21722;DHT22;11023;48.274;7.794;2023-02-28T05:59:30;-0.50;99.90
21722;DHT22;11023;48.274;7.794;2023-02-28T06:02:02;-0.50;99.90
21722;DHT22;11023;48.274;7.794;2023-02-28T06:04:30;-0.50;99.90
21722;DHT22;11023;48.274;7.794;2023-02-28T06:07:16;-0.50;99.90
21722;DHT22;11023;48.274;7.794;2023-02-28T06:09:43;-0.50;99.90
21722;DHT22;11023;48.274;7.794;2023-02-28T06:12:10;-0.50;99.90
21722;DHT22;11023;48.274;7.794;2023-02-28T06:14:36;-0.50;99.90
21722;DHT22;11023;48.274;7.794;2023-02-28T06:17:05;-0.50;99.90
21722;DHT22;11023;48.274;7.794;2023-02-28T06:19:31;-0.60;99.90
21722;DHT22;11023;48.274;7.794;2023-02-28T06:21:57;-0.60;99.90
21722;DHT22;11023;48.274;7.794;2023-02-28T06:24:25;-0.60;99.90
21722;DHT22;11023;48.274;7.794;2023-02-28T06:26:53;-0.60;99.90
21722;DHT22;11023;48.274;7.794;2023-02-28T06:29:19;-0.60;99.90
21722;DHT22;11023;48.274;7.794;2023-02-28T06:31:45;-0.60;99.90
21722;DHT22;11023;48.274;7.794;2023-02-28T06:34:11;-0.60;99.90
21722;DHT22;11023;48.274;7.794;2023-02-28T06:36:38;-0.60;99.90
21722;DHT22;11023;48.274;7.794;2023-02-28T06:39:04;-0.70;99.90
21722;DHT22;11023;48.274;7.794;2023-02-28T06:41:30;-0.60;99.90
21722;DHT22;11023;48.274;7.794;2023-02-28T06:43:57;-0.60;99.90
21722;DHT22;11023;48.274;7.794;2023-02-28T06:46:23;-0.60;99.90
21722;DHT22;11023;48.274;7.794;2023-02-28T06:48:49;-0.60;99.90
21722;DHT22;11023;48.274;7.794;2023-02-28T06:51:20;-0.60;99.90
21722;DHT22;11023;48.274;7.794;2023-02-28T06:53:47;-0.60;99.90
21722;DHT22;11023;48.274;7.794;2023-02-28T06:56:14;-0.60;99.90
21722;DHT22;11023;48.274;7.794;2023-02-28T06:58:41;-0.50;99.90
21722;DHT22;11023;48.274;7.794;2023-02-28T07:01:08;-0.60;99.90
21722;DHT22;11023;48.274;7.794;2023-02-28T07:03:35;-0.50;99.90
21722;DHT22;11023;48.274;7.794;2023-02-28T07:06:01;-0.50;99.90
21722;DHT22;11023;48.274;7.794;2023-02-28T07:08:28;-0.60;99.90
21722;DHT22;11023;48.274;7.794;2023-02-28T07:10:57;-0.60;99.90
21722;DHT22;11023;48.274;7.794;2023-02-28T07:13:23;-0.50;99.90
21722;DHT22;11023;48.274;7.794;2023-02-28T07:16:02;-0.50;99.90
21722;DHT22;11023;48.274;7.794;2023-02-28T07:18:29;-0.50;99.90
21722;DHT22;11023;48.274;7.794;2023-02-28T07:20:54;-0.50;99.90
21722;DHT22;11023;48.274;7.794;2023-02-28T07:23:21;-0.40;99.90
21722;DHT22;11023;48.274;7.794;2023-02-28T07:25:47;-0.40;99.90
21722;DHT22;11023;48.274;7.794;2023-02-28T07:28:13;-0.40;99.90
21722;DHT22;11023;48.274;7.794;2023-02-28T07:30:39;-0.40;99.90
21722;DHT22;11023;48.274;7.794;2023-02-28T07:33:05;-0.40;99.90
21722;DHT22;11023;48.274;7.794;2023-02-28T07:35:31;-0.40;99.90
21722;DHT22;11023;48.274;7.794;2023-02-28T07:38:00;-0.30;99.90
21722;DHT22;11023;48.274;7.794;2023-02-28T07:40:26;-0.20;99.90
21722;DHT22;11023;48.274;7.794;2023-02-28T07:42:52;-0.20;99.90
21722;DHT22;11023;48.274;7.794;2023-02-28T07:45:18;-0.10;99.90
21722;DHT22;11023;48.274;7.794;2023-02-28T07:47:45;0.00;99.90
21722;DHT22;11023;48.274;7.794;2023-02-28T07:50:12;0.10;99.90
21722;DHT22;11023;48.274;7.794;2023-02-28T07:52:39;0.00;99.90
21722;DHT22;11023;48.274;7.794;2023-02-28T07:55:07;0.10;99.90
21722;DHT22;11023;48.274;7.794;2023-02-28T07:57:33;0.20;99.90
21722;DHT22;11023;48.274;7.794;2023-02-28T07:59:58;0.20;99.90
21722;DHT22;11023;48.274;7.794;2023-02-28T08:02:24;0.40;99.90
21722;DHT22;11023;48.274;7.794;2023-02-28T08:04:50;0.40;99.90
21722;DHT22;11023;48.274;7.794;2023-02-28T08:07:16;0.40;99.90
21722;DHT22;11023;48.274;7.794;2023-02-28T08:09:43;0.50;99.90
21722;DHT22;11023;48.274;7.794;2023-02-28T08:12:10;0.60;99.90
21722;DHT22;11023;48.274;7.794;2023-02-28T08:14:37;0.60;99.90
21722;DHT22;11023;48.274;7.794;2023-02-28T08:17:03;0.50;99.90
21722;DHT22;11023;48.274;7.794;2023-02-28T08:19:29;0.60;99.90
21722;DHT22;11023;48.274;7.794;2023-02-28T08:21:55;0.50;99.90
21722;DHT22;11023;48.274;7.794;2023-02-28T08:24:21;0.60;99.90
21722;DHT22;11023;48.274;7.794;2023-02-28T08:26:47;0.60;99.90
21722;DHT22;11023;48.274;7.794;2023-02-28T08:29:12;0.70;99.90
21722;DHT22;11023;48.274;7.794;2023-02-28T08:31:38;0.60;99.90
21722;DHT22;11023;48.274;7.794;2023-02-28T08:34:12;0.60;99.90
21722;DHT22;11023;48.274;7.794;2023-02-28T08:36:38;0.60;99.90
21722;DHT22;11023;48.274;7.794;2023-02-28T08:39:04;0.60;99.90
21722;DHT22;11023;48.274;7.794;2023-02-28T08:41:30;0.60;99.90
21722;DHT22;11023;48.274;7.794;2023-02-28T08:43:56;0.60;99.90
21722;DHT22;11023;48.274;7.794;2023-02-28T08:46:22;0.60;99.90
21722;DHT22;11023;48.274;7.794;2023-02-28T08:48:52;0.60;99.90
21722;DHT22;11023;48.274;7.794;2023-02-28T08:51:19;0.60;99.90
21722;DHT22;11023;48.274;7.794;2023-02-28T08:53:52;0.60;99.90
21722;DHT22;11023;48.274;7.794;2023-02-28T08:56:19;0.60;99.90
21722;DHT22;11023;48.274;7.794;2023-02-28T08:58:46;0.60;99.90
21722;DHT22;11023;48.274;7.794;2023-02-28T09:01:20;0.70;99.90
21722;DHT22;11023;48.274;7.794;2023-02-28T09:03:47;0.70;99.90
21722;DHT22;11023;48.274;7.794;2023-02-28T09:06:14;0.70;99.90
21722;DHT22;11023;48.274;7.794;2023-02-28T09:08:40;0.70;99.90
21722;DHT22;11023;48.274;7.794;2023-02-28T09:11:06;0.70;99.90
21722;DHT22;11023;48.274;7.794;2023-02-28T09:13:33;0.90;99.90
21722;DHT22;11023;48.274;7.794;2023-02-28T09:16:01;0.90;99.90
21722;DHT22;11023;48.274;7.794;2023-02-28T09:18:28;0.80;99.90
21722;DHT22;11023;48.274;7.794;2023-02-28T09:20:54;0.90;99.90
21722;DHT22;11023;48.274;7.794;2023-02-28T09:23:20;1.00;99.90
21722;DHT22;11023;48.274;7.794;2023-02-28T09:25:48;1.00;99.90
21722;DHT22;11023;48.274;7.794;2023-02-28T09:28:14;1.10;99.90
21722;DHT22;11023;48.274;7.794;2023-02-28T09:30:47;1.10;99.90
21722;DHT22;11023;48.274;7.794;2023-02-28T09:33:13;1.20;99.90
21722;DHT22;11023;48.274;7.794;2023-02-28T09:35:39;1.20;99.90
21722;DHT22;11023;48.274;7.794;2023-02-28T09:38:05;1.20;99.90
21722;DHT22;11023;48.274;7.794;2023-02-28T09:40:37;1.10;99.90
21722;DHT22;11023;48.274;7.794;2023-02-28T09:43:03;1.30;99.90
21722;DHT22;11023;48.274;7.794;2023-02-28T09:45:31;1.30;99.90
21722;DHT22;11023;48.274;7.794;2023-02-28T09:48:12;1.30;99.90
21722;DHT22;11023;48.274;7.794;2023-02-28T09:50:43;1.30;99.90
21722;DHT22;11023;48.274;7.794;2023-02-28T09:53:26;1.30;99.90
21722;DHT22;11023;48.274;7.794;2023-02-28T09:56:04;1.40;99.90
21722;DHT22;11023;48.274;7.794;2023-02-28T10:01:10;1.60;99.90
21722;DHT22;11023;48.274;7.794;2023-02-28T10:03:43;1.50;99.90
21722;DHT22;11023;48.274;7.794;2023-02-28T10:06:18;1.40;99.90
21722;DHT22;11023;48.274;7.794;2023-02-28T10:09:00;1.50;99.90
21722;DHT22;11023;48.274;7.794;2023-02-28T10:11:27;1.40;99.90
21722;DHT22;11023;48.274;7.794;2023-02-28T10:14:04;1.50;99.90
21722;DHT22;11023;48.274;7.794;2023-02-28T10:16:39;1.50;99.90
21722;DHT22;11023;48.274;7.794;2023-02-28T10:19:13;1.60;99.90
21722;DHT22;11023;48.274;7.794;2023-02-28T10:21:56;1.70;99.90
21722;DHT22;11023;48.274;7.794;2023-02-28T10:24:42;1.80;99.90
21722;DHT22;11023;48.274;7.794;2023-02-28T10:27:20;1.70;99.90
21722;DHT22;11023;48.274;7.794;2023-02-28T10:29:51;1.80;99.90
21722;DHT22;11023;48.274;7.794;2023-02-28T10:32:20;1.80;99.90
21722;DHT22;11023;48.274;7.794;2023-02-28T10:34:59;1.90;99.90
21722;DHT22;11023;48.274;7.794;2023-02-28T10:37:26;1.90;99.90
21722;DHT22;11023;48.274;7.794;2023-02-28T10:39:52;1.90;99.90
21722;DHT22;11023;48.274;7.794;2023-02-28T10:45:06;2.00;99.90
21722;DHT22;11023;48.274;7.794;2023-02-28T10:47:33;2.00;99.90
21722;DHT22;11023;48.274;7.794;2023-02-28T10:49:59;1.90;99.90
21722;DHT22;11023;48.274;7.794;2023-02-28T10:52:35;2.00;99.90
21722;DHT22;11023;48.274;7.794;2023-02-28T10:55:24;2.00;99.90
21722;DHT22;11023;48.274;7.794;2023-02-28T10:57:51;2.10;99.90
21722;DHT22;11023;48.274;7.794;2023-02-28T11:00:23;2.20;99.90
21722;DHT22;11023;48.274;7.794;2023-02-28T11:02:51;2.20;99.90
21722;DHT22;11023;48.274;7.794;2023-02-28T11:08:03;2.20;99.90
21722;DHT22;11023;48.274;7.794;2023-02-28T11:10:31;2.20;99.90
21722;DHT22;11023;48.274;7.794;2023-02-28T11:13:00;2.20;99.90
21722;DHT22;11023;48.274;7.794;2023-02-28T11:15:32;2.30;99.90
21722;DHT22;11023;48.274;7.794;2023-02-28T11:18:00;2.40;99.90
21722;DHT22;11023;48.274;7.794;2023-02-28T11:20:28;2.40;99.90
21722;DHT22;11023;48.274;7.794;2023-02-28T11:22:56;2.40;99.90
21722;DHT22;11023;48.274;7.794;2023-02-28T11:25:38;2.40;99.90
21722;DHT22;11023;48.274;7.794;2023-02-28T11:28:32;2.40;99.90
21722;DHT22;11023;48.274;7.794;2023-02-28T11:33:31;2.60;99.90
21722;DHT22;11023;48.274;7.794;2023-02-28T11:36:03;2.60;99.90
21722;DHT22;11023;48.274;7.794;2023-02-28T11:38:35;2.60;99.90
21722;DHT22;11023;48.274;7.794;2023-02-28T11:41:17;2.60;99.90
21722;DHT22;11023;48.274;7.794;2023-02-28T11:44:00;2.60;99.90
21722;DHT22;11023;48.274;7.794;2023-02-28T11:46:49;2.60;99.90
21722;DHT22;11023;48.274;7.794;2023-02-28T11:50:38;2.60;99.90
21722;DHT22;11023;48.274;7.794;2023-02-28T11:58:05;2.90;99.90
21722;DHT22;11023;48.274;7.794;2023-02-28T12:05:47;3.10;99.90
21722;DHT22;11023;48.274;7.794;2023-02-28T12:08:44;3.30;99.90
21722;DHT22;11023;48.274;7.794;2023-02-28T12:16:47;3.40;99.90
21722;DHT22;11023;48.274;7.794;2023-02-28T12:19:54;3.40;99.90
21722;DHT22;11023;48.274;7.794;2023-02-28T12:22:36;3.50;99.90
21722;DHT22;11023;48.274;7.794;2023-02-28T12:25:14;3.50;99.90
21722;DHT22;11023;48.274;7.794;2023-02-28T12:27:46;3.60;99.90
21722;DHT22;11023;48.274;7.794;2023-02-28T12:30:25;3.80;99.90
21722;DHT22;11023;48.274;7.794;2023-02-28T12:33:09;4.00;99.90
21722;DHT22;11023;48.274;7.794;2023-02-28T12:35:44;4.10;99.90
21722;DHT22;11023;48.274;7.794;2023-02-28T12:38:16;4.00;99.90
21722;DHT22;11023;48.274;7.794;2023-02-28T12:40:47;4.10;99.90
21722;DHT22;11023;48.274;7.794;2023-02-28T12:43:14;4.10;99.90
21722;DHT22;11023;48.274;7.794;2023-02-28T12:45:50;4.10;99.90
21722;DHT22;11023;48.274;7.794;2023-02-28T12:48:27;4.10;99.90
21722;DHT22;11023;48.274;7.794;2023-02-28T12:50:54;4.20;99.90
21722;DHT22;11023;48.274;7.794;2023-02-28T12:53:30;4.30;99.90
21722;DHT22;11023;48.274;7.794;2023-02-28T12:56:49;4.50;99.90
21722;DHT22;11023;48.274;7.794;2023-02-28T12:58:53;4.50;99.90
21722;DHT22;11023;48.274;7.794;2023-02-28T13:09:23;4.60;99.90
21722;DHT22;11023;48.274;7.794;2023-02-28T13:11:50;4.60;99.90
21722;DHT22;11023;48.274;7.794;2023-02-28T13:14:24;4.50;99.90
21722;DHT22;11023;48.274;7.794;2023-02-28T13:19:25;4.50;99.90
21722;DHT22;11023;48.274;7.794;2023-02-28T13:21:52;4.40;99.90
21722;DHT22;11023;48.274;7.794;2023-02-28T13:24:48;4.40;99.90
21722;DHT22;11023;48.274;7.794;2023-02-28T13:29:42;4.60;99.90
21722;DHT22;11023;48.274;7.794;2023-02-28T13:34:37;4.90;99.90
21722;DHT22;11023;48.274;7.794;2023-02-28T13:39:49;5.00;99.90
21722;DHT22;11023;48.274;7.794;2023-02-28T13:47:43;5.50;99.90
21722;DHT22;11023;48.274;7.794;2023-02-28T14:04:30;5.40;99.90
21722;DHT22;11023;48.274;7.794;2023-02-28T14:06:59;5.20;99.90
21722;DHT22;11023;48.274;7.794;2023-02-28T14:09:52;5.10;99.90
21722;DHT22;11023;48.274;7.794;2023-02-28T14:12:52;5.00;99.90
21722;DHT22;11023;48.274;7.794;2023-02-28T14:18:40;4.90;99.90
21722;DHT22;11023;48.274;7.794;2023-02-28T14:32:13;5.40;99.90
21722;DHT22;11023;48.274;7.794;2023-02-28T14:35:03;5.60;99.90
21722;DHT22;11023;48.274;7.794;2023-02-28T14:37:38;5.70;99.90
21722;DHT22;11023;48.274;7.794;2023-02-28T14:40:11;5.80;99.90
21722;DHT22;11023;48.274;7.794;2023-02-28T14:42:38;5.90;99.90
21722;DHT22;11023;48.274;7.794;2023-02-28T14:45:18;6.10;99.90
21722;DHT22;11023;48.274;7.794;2023-02-28T14:47:44;6.30;99.90
21722;DHT22;11023;48.274;7.794;2023-02-28T14:50:19;6.40;99.90
21722;DHT22;11023;48.274;7.794;2023-02-28T14:52:45;6.60;99.90
21722;DHT22;11023;48.274;7.794;2023-02-28T14:55:17;6.80;99.90
21722;DHT22;11023;48.274;7.794;2023-02-28T14:58:01;6.90;99.90
21722;DHT22;11023;48.274;7.794;2023-02-28T15:00:33;7.00;99.90
21722;DHT22;11023;48.274;7.794;2023-02-28T15:03:11;7.10;99.90
21722;DHT22;11023;48.274;7.794;2023-02-28T15:05:47;7.20;99.90
21722;DHT22;11023;48.274;7.794;2023-02-28T15:08:16;7.20;99.90
21722;DHT22;11023;48.274;7.794;2023-02-28T15:10:54;7.30;99.90
21722;DHT22;11023;48.274;7.794;2023-02-28T15:13:20;7.50;99.90
21722;DHT22;11023;48.274;7.794;2023-02-28T15:15:57;7.30;99.90
21722;DHT22;11023;48.274;7.794;2023-02-28T15:21:30;7.10;99.90
21722;DHT22;11023;48.274;7.794;2023-02-28T15:26:38;7.00;99.90
21722;DHT22;11023;48.274;7.794;2023-02-28T15:29:15;7.00;99.90
21722;DHT22;11023;48.274;7.794;2023-02-28T15:32:02;6.90;99.90
21722;DHT22;11023;48.274;7.794;2023-02-28T15:34:39;6.80;99.90
21722;DHT22;11023;48.274;7.794;2023-02-28T15:40:31;6.40;99.90
21722;DHT22;11023;48.274;7.794;2023-02-28T15:45:36;6.20;99.90
21722;DHT22;11023;48.274;7.794;2023-02-28T15:48:05;6.20;99.90
21722;DHT22;11023;48.274;7.794;2023-02-28T15:50:31;6.10;99.90
21722;DHT22;11023;48.274;7.794;2023-02-28T15:52:57;6.10;99.90
21722;DHT22;11023;48.274;7.794;2023-02-28T15:55:27;6.10;99.90
21722;DHT22;11023;48.274;7.794;2023-02-28T15:57:56;6.10;99.90
21722;DHT22;11023;48.274;7.794;2023-02-28T16:00:30;6.10;99.90
21722;DHT22;11023;48.274;7.794;2023-02-28T16:02:58;6.00;99.90
21722;DHT22;11023;48.274;7.794;2023-02-28T16:05:29;6.00;99.90
21722;DHT22;11023;48.274;7.794;2023-02-28T16:08:01;6.10;99.90
21722;DHT22;11023;48.274;7.794;2023-02-28T16:10:28;6.10;99.90
21722;DHT22;11023;48.274;7.794;2023-02-28T16:12:55;6.20;99.90
21722;DHT22;11023;48.274;7.794;2023-02-28T16:15:27;6.20;99.90
21722;DHT22;11023;48.274;7.794;2023-02-28T16:17:54;6.10;99.90
21722;DHT22;11023;48.274;7.794;2023-02-28T16:20:26;6.00;99.90
21722;DHT22;11023;48.274;7.794;2023-02-28T16:22:52;6.10;99.90
21722;DHT22;11023;48.274;7.794;2023-02-28T16:25:23;6.00;99.90
21722;DHT22;11023;48.274;7.794;2023-02-28T16:27:52;6.00;99.90
21722;DHT22;11023;48.274;7.794;2023-02-28T16:30:26;6.00;99.90
21722;DHT22;11023;48.274;7.794;2023-02-28T16:32:54;6.10;99.90
21722;DHT22;11023;48.274;7.794;2023-02-28T16:35:21;6.00;99.90
21722;DHT22;11023;48.274;7.794;2023-02-28T16:37:47;6.00;99.90
21722;DHT22;11023;48.274;7.794;2023-02-28T16:40:19;6.00;99.90
21722;DHT22;11023;48.274;7.794;2023-02-28T16:42:47;6.10;99.90
21722;DHT22;11023;48.274;7.794;2023-02-28T16:45:27;6.00;99.90
21722;DHT22;11023;48.274;7.794;2023-02-28T16:47:54;6.00;99.90
21722;DHT22;11023;48.274;7.794;2023-02-28T16:50:31;5.90;99.90
21722;DHT22;11023;48.274;7.794;2023-02-28T16:52:58;5.90;99.90
21722;DHT22;11023;48.274;7.794;2023-02-28T16:55:25;5.80;99.90
21722;DHT22;11023;48.274;7.794;2023-02-28T16:57:53;5.80;99.90
21722;DHT22;11023;48.274;7.794;2023-02-28T17:00:20;5.70;99.90
21722;DHT22;11023;48.274;7.794;2023-02-28T17:02:45;5.60;99.90
21722;DHT22;11023;48.274;7.794;2023-02-28T17:05:12;5.60;99.90
21722;DHT22;11023;48.274;7.794;2023-02-28T17:07:38;5.50;99.90
21722;DHT22;11023;48.274;7.794;2023-02-28T17:10:16;5.50;99.90
21722;DHT22;11023;48.274;7.794;2023-02-28T17:12:42;5.30;99.90
21722;DHT22;11023;48.274;7.794;2023-02-28T17:15:13;5.30;99.90
21722;DHT22;11023;48.274;7.794;2023-02-28T17:17:40;5.20;99.90
21722;DHT22;11023;48.274;7.794;2023-02-28T17:20:13;5.10;99.90
21722;DHT22;11023;48.274;7.794;2023-02-28T17:22:39;5.00;99.90
21722;DHT22;11023;48.274;7.794;2023-02-28T17:25:05;4.90;99.90
21722;DHT22;11023;48.274;7.794;2023-02-28T17:27:31;4.80;99.90
21722;DHT22;11023;48.274;7.794;2023-02-28T17:29:57;4.80;99.90
21722;DHT22;11023;48.274;7.794;2023-02-28T17:32:22;4.80;99.90
21722;DHT22;11023;48.274;7.794;2023-02-28T17:34:49;4.70;99.90
21722;DHT22;11023;48.274;7.794;2023-02-28T17:37:14;4.70;99.90
21722;DHT22;11023;48.274;7.794;2023-02-28T17:39:40;4.70;99.90
21722;DHT22;11023;48.274;7.794;2023-02-28T17:42:06;4.60;99.90
21722;DHT22;11023;48.274;7.794;2023-02-28T17:44:32;4.50;99.90
21722;DHT22;11023;48.274;7.794;2023-02-28T17:46:59;4.40;99.90
21722;DHT22;11023;48.274;7.794;2023-02-28T17:49:24;4.30;99.90
21722;DHT22;11023;48.274;7.794;2023-02-28T17:51:50;4.20;99.90
21722;DHT22;11023;48.274;7.794;2023-02-28T17:54:16;4.10;99.90
21722;DHT22;11023;48.274;7.794;2023-02-28T17:56:41;4.00;99.90
21722;DHT22;11023;48.274;7.794;2023-02-28T17:59:10;3.90;99.90
21722;DHT22;11023;48.274;7.794;2023-02-28T18:01:36;3.70;99.90
21722;DHT22;11023;48.274;7.794;2023-02-28T18:04:02;3.60;99.90
21722;DHT22;11023;48.274;7.794;2023-02-28T18:06:37;3.30;99.90
21722;DHT22;11023;48.274;7.794;2023-02-28T18:09:12;3.20;99.90
21722;DHT22;11023;48.274;7.794;2023-02-28T18:11:38;3.00;99.90